• Join FlightAware (Why Join?)
  • Login
  • US Flag 
06:02AM EDT


 

Airport Tracker/Info


-or-


 

Live Flight TrackerFlight Track Log ✈ AWE3417 ✈ 10-Apr-2013 ✈ KMHT - KDCA

Flight Track Log - Related Links

Times and Time Zones

All times are in EDT time to prevent confusion due to time zone crossing. See the AWE3417 flight status page for this flight to view local times or setup timezone preferences in your user account.

Time Position Orientation Groundspeed Altitude Reporting Facility
EDT Latitude Longitude Course Direction KTS MPH feet Rate Location/Type
05:09PM 42.9500 -71.4167 20° North 159 183 1,200  Level KA90
05:10PM 42.9833 -71.4000 20° North 183 211 2,600 2,340 Climbing KA90
05:12PM 43.0550 -71.2694 53° Northeast 257 296 7,300 2,400 Climbing Boston Center
05:13PM 43.0619 -71.1469 86° East 291 335 9,500 2,400 Climbing Boston Center
05:14PM 43.0728 -71.0047 84° East 359 413 12,100 2,520 Climbing Boston Center
05:15PM 43.0069 -70.9069 133° Southeast 342 394 14,500 2,340 Climbing Boston Center
05:16PM 42.9175 -70.9147 184° South 303 349 16,800 2,400 Climbing Boston Center
05:17PM 42.8306 -70.9567 199° South 314 361 19,300 2,400 Climbing Boston Center
05:18PM 42.7414 -71.0011 200° South 327 376 21,700 2,040 Climbing Boston Center
05:19PM 42.6503 -71.0456 200° South 343 395 23,500 1,800 Climbing Boston Center
05:20PM 42.5847 -71.1431 228° Southwest 351 404 25,400 1,980 Climbing Boston Center
05:21PM 42.5400 -71.2539 241° Southwest 332 382 27,500 1,680 Climbing Boston Center
05:22PM 42.5056 -71.3417 242° Southwest 337 388 28,800 1,080 Climbing Boston Center
05:24PM 42.4585 -71.5206 228° Southwest  Level FlightAware Approximate
05:25PM 42.3542 -71.7011 228° Southwest 337 388 32,000  Level Boston Center
05:26PM 42.3089 -71.8083 240° Southwest 337 388 32,000  Level Boston Center
05:27PM 42.2636 -71.9183 241° Southwest 337 388 32,000  Level Boston Center
05:28PM 42.2183 -72.0253 240° Southwest 337 388 32,000  Level Boston Center
05:29PM 42.1750 -72.1347 242° Southwest 337 388 32,000  Level Boston Center
05:30PM 42.1292 -72.2442 241° Southwest 337 388 32,000  Level Boston Center
05:31PM 42.0919 -72.3311 240° Southwest 337 388 32,000  Level Boston Center
05:32PM 42.0378 -72.4597 240° Southwest 337 388 32,000  Level Boston Center
05:33PM 41.9919 -72.5686 241° Southwest 337 388 32,000  Level Boston Center
05:34PM 41.9481 -72.6717 240° Southwest 332 382 32,000  Level Boston Center
05:35PM 41.8831 -72.7664 227° Southwest 332 382 32,000  Level Boston Center
05:36PM 41.8161 -72.8606 226° Southwest 342 394 32,000  Level Boston Center
05:37PM 41.7447 -72.9575 225° Southwest 362 417 32,000  Level Boston Center
05:38PM 41.6756 -73.0517 225° Southwest 362 417 32,000  Level Boston Center
05:39PM 41.6083 -73.1453 226° Southwest 351 404 32,000  Level Boston Center
05:41PM 41.5164 -73.2675 225° Southwest 343 395 32,000  Level New York Center
05:42PM 41.4456 -73.3644 226° Southwest 348 400 32,000  Level New York Center
05:43PM 41.3747 -73.4558 224° Southwest 348 400 32,000  Level New York Center
05:44PM 41.3058 -73.5497 226° Southwest 348 400 32,000 -60 Level New York Center
05:45PM 41.2431 -73.6492 230° Southwest 348 400 31,900 -540 Descending New York Center
05:46PM 41.1822 -73.7511 232° Southwest 353 406 31,000 -960 Descending New York Center
05:47PM 41.1214 -73.8506 231° Southwest 353 406 30,000 -540 Descending New York Center
05:48PM 41.0583 -73.9550 231° Southwest 364 419 30,000  Level New York Center
05:49PM 40.9992 -74.0594 233° Southwest 364 419 30,000 -420 Level New York Center
05:50PM 40.9292 -74.1767 232° Southwest 364 419 29,200 -900 Descending New York Center
05:51PM 40.8636 -74.2778 229° Southwest 364 419 28,200 -660 Descending New York Center
05:52PM 40.8003 -74.3814 231° Southwest 364 419 28,000 -120 Descending New York Center
05:53PM 40.7386 -74.4875 233° Southwest 364 419 28,000 -600 Level New York Center
05:54PM 40.6747 -74.5908 231° Southwest 364 419 26,900 -1,200 Descending New York Center
05:55PM 40.6108 -74.6967 232° Southwest 364 419 25,700 -1,320 Descending New York Center
05:56PM 40.5428 -74.8019 230° Southwest 364 419 24,400 -1,320 Descending New York Center
05:57PM 40.4706 -74.9014 226° Southwest 374 430 23,100 -1,320 Descending New York Center
05:58PM 40.3981 -75.0061 228° Southwest 384 442 21,800 -1,320 Descending New York Center
05:59PM 40.3278 -75.1053 227° Southwest 384 442 20,600 -960 Descending New York Center
06:00PM 40.2686 -75.1858 226° Southwest 365 420 20,000 -300 Descending New York Center
06:01PM 40.2067 -75.2769 228° Southwest 352 405 20,000  Level New York Center
06:02PM 40.1428 -75.3653 227° Southwest 347 399 20,000  Level New York Center
06:03PM 40.0789 -75.4558 227° Southwest 347 399 20,000  Level New York Center
06:04PM 40.0147 -75.5464 227° Southwest 347 399 20,000  Level New York Center
06:05PM 39.9508 -75.6314 226° Southwest 342 394 20,000 -120 Level New York Center
06:06PM 39.8903 -75.7300 231° Southwest 342 394 19,800 -600 Descending New York Center
06:07PM 39.8317 -75.8394 235° Southwest 347 399 18,800 -1,020 Descending New York Center
06:08PM 39.7839 -75.9281 235° Southwest 342 394 17,900 -1,080 Descending New York Center
06:09PM 39.7225 -76.0450 236° Southwest 353 406 16,800 -1,200 Descending New York Center
06:10PM 39.6739 -76.1519 239° Southwest 359 413 15,500 -1,320 Descending New York Center
06:11PM 39.6711 -76.2569 268° West 323 372 14,200 -1,440 Descending New York Center
06:12PM 39.6650 -76.3858 267° West 329 379 12,700 -1,140 Descending New York Center
06:13PM 39.6603 -76.4853 267° West 329 379 12,000 -360 Descending New York Center
06:14PM 39.6292 -76.6069 252° West 329 379 12,000  Level New York Center
06:15PM 39.4833 -76.7000 206° Southwest 370 426 12,000  Level Potomac TRACON
06:16PM 39.3833 -76.6833 173° South 367 422 12,000 -120 Level Potomac TRACON
06:17PM 39.2667 -76.6667 174° South 374 430 11,800 -1,020 Descending Potomac TRACON
06:18PM 39.1833 -76.6667 180° South 336 387 10,000 -900 Descending Potomac TRACON
06:19PM 39.1167 -76.7333 218° Southwest 268 308 10,000  Level Potomac TRACON
06:20PM 39.0667 -76.7833 218° Southwest 247 284 10,000  Level Potomac TRACON
06:21PM 39.0167 -76.8333 218° Southwest 201 231 10,000 -240 Level Potomac TRACON
06:22PM 38.9833 -76.8833 229° Southwest 198 228 9,600 -660 Descending Potomac TRACON
06:23PM 38.9667 -76.9500 252° West 195 224 8,700 -1,140 Descending Potomac TRACON
06:24PM 38.9833 -77.0333 284° West 200 230 7,400 -1,440 Descending Potomac TRACON
06:25PM 39.0167 -77.0833 311° West 207 238 5,900 -1,500 Descending Potomac TRACON
06:26PM 39.0500 -77.1333 311° West 208 239 4,400 -1,320 Descending Potomac TRACON
06:27PM 39.0667 -77.1833 293° West 177 204 3,300 -720 Descending Potomac TRACON
06:28PM 39.0333 -77.2167 218° Southwest 180 207 3,000 -180 Descending Potomac TRACON
06:29PM 39.0000 -77.1667 131° Southeast 179 206 3,000 -360 Level Potomac TRACON
06:30PM 38.9500 -77.1333 153° Southeast 173 199 2,300 -840 Descending Potomac TRACON
06:31PM 38.9167 -77.1000 142° Southeast 173 199 1,400 -900 Descending Potomac TRACON